createdAt,value
2022-09-15T00:01:54.928Z,14.70
2022-09-15T00:04:22.677Z,14.90
2022-09-15T00:06:50.274Z,14.70
2022-09-15T00:09:17.849Z,14.70
2022-09-15T00:11:50.083Z,14.70
2022-09-15T00:14:18.726Z,14.80
2022-09-15T00:16:49.230Z,14.60
2022-09-15T00:19:17.361Z,15.90
2022-09-15T00:21:47.487Z,14.80
2022-09-15T00:24:15.118Z,14.60
2022-09-15T00:26:59.784Z,14.50
2022-09-15T00:29:27.488Z,14.50
2022-09-15T00:31:55.741Z,14.50
2022-09-15T00:34:23.299Z,14.40
2022-09-15T00:36:50.852Z,14.30
2022-09-15T00:39:18.712Z,14.30
2022-09-15T00:41:46.374Z,14.40
2022-09-15T00:44:21.208Z,14.20
2022-09-15T00:47:09.718Z,14.20
2022-09-15T00:49:41.571Z,14.10
2022-09-15T00:52:15.753Z,14.00
2022-09-15T00:54:55.463Z,13.90
2022-09-15T00:57:31.689Z,13.80
2022-09-15T01:00:02.642Z,13.70
2022-09-15T01:02:33.828Z,13.60
2022-09-15T01:05:04.795Z,13.50
2022-09-15T01:07:46.157Z,13.50
2022-09-15T01:10:26.049Z,13.40
2022-09-15T01:12:57.160Z,13.40
2022-09-15T01:15:31.148Z,13.30
2022-09-15T01:18:20.813Z,13.40
2022-09-15T01:21:02.668Z,13.40
2022-09-15T01:24:03.235Z,13.50
2022-09-15T01:26:58.649Z,13.50
2022-09-15T01:29:43.462Z,13.60
2022-09-15T01:32:58.649Z,13.40
2022-09-15T01:35:35.432Z,13.40
2022-09-15T01:38:39.583Z,13.40
2022-09-15T01:41:31.938Z,13.40
2022-09-15T01:44:15.723Z,13.30
2022-09-15T01:46:50.298Z,13.20
2022-09-15T01:49:25.113Z,13.20
2022-09-15T01:51:54.720Z,13.10
2022-09-15T01:54:40.078Z,13.10
2022-09-15T01:57:10.180Z,13.00
2022-09-15T01:59:37.781Z,12.90
2022-09-15T02:02:12.690Z,13.00
2022-09-15T02:04:58.179Z,12.90
2022-09-15T02:07:36.820Z,12.80
2022-09-15T02:10:17.749Z,12.80
2022-09-15T02:12:50.713Z,12.80
2022-09-15T02:15:33.384Z,12.70
2022-09-15T02:18:05.006Z,12.70
2022-09-15T02:20:43.226Z,12.70
2022-09-15T02:23:39.727Z,12.70
2022-09-15T02:26:14.079Z,12.60
2022-09-15T02:28:44.344Z,12.60
2022-09-15T02:31:15.280Z,12.50
2022-09-15T02:33:48.842Z,12.60
2022-09-15T02:36:19.886Z,12.60
2022-09-15T02:38:53.017Z,12.50
2022-09-15T02:41:20.971Z,12.50
2022-09-15T02:43:50.078Z,12.60
2022-09-15T02:46:21.246Z,12.80
2022-09-15T02:48:49.092Z,12.40
2022-09-15T02:51:24.087Z,12.50
2022-09-15T02:53:51.841Z,12.50
2022-09-15T02:56:19.471Z,12.40
2022-09-15T02:58:47.234Z,12.60
2022-09-15T03:01:15.730Z,12.40
2022-09-15T03:03:45.024Z,12.50
2022-09-15T03:06:16.508Z,12.50
2022-09-15T03:08:48.918Z,12.40
2022-09-15T03:11:19.373Z,12.80
2022-09-15T03:13:47.631Z,12.60
2022-09-15T03:16:15.989Z,12.60
2022-09-15T03:18:43.526Z,12.50
2022-09-15T03:21:13.580Z,12.60
2022-09-15T03:23:42.055Z,12.60
2022-09-15T03:26:10.604Z,12.60
2022-09-15T03:28:39.022Z,12.00
2022-09-15T03:31:08.113Z,12.50
2022-09-15T03:33:36.449Z,12.60
2022-09-15T03:36:04.534Z,11.00
2022-09-15T03:38:31.923Z,12.40
2022-09-15T03:41:01.600Z,12.50
2022-09-15T03:43:30.672Z,12.50
2022-09-15T03:45:59.162Z,12.50
2022-09-15T03:48:28.399Z,13.00
2022-09-15T03:50:55.973Z,12.50
2022-09-15T03:53:23.713Z,12.50
2022-09-15T03:55:51.632Z,12.50
2022-09-15T03:58:19.627Z,12.80
2022-09-15T04:00:47.549Z,11.00
2022-09-15T04:03:15.171Z,12.50
2022-09-15T04:05:42.797Z,12.60
2022-09-15T04:08:13.063Z,12.50
2022-09-15T04:10:41.314Z,12.60
2022-09-15T04:13:08.725Z,12.50
2022-09-15T04:15:36.204Z,12.60
2022-09-15T04:18:04.961Z,11.60
2022-09-15T04:20:38.186Z,11.90
2022-09-15T04:23:05.750Z,12.60
2022-09-15T04:25:33.305Z,12.70
2022-09-15T04:28:00.952Z,12.60
2022-09-15T04:30:28.638Z,12.70
2022-09-15T04:32:56.279Z,12.70
2022-09-15T04:35:23.803Z,12.70
2022-09-15T04:37:51.587Z,12.70
2022-09-15T04:40:21.550Z,12.70
2022-09-15T04:42:49.144Z,12.70
2022-09-15T04:45:17.059Z,12.70
2022-09-15T04:47:45.164Z,12.70
2022-09-15T04:50:12.612Z,12.60
2022-09-15T04:52:40.293Z,12.60
2022-09-15T04:55:08.295Z,12.60
2022-09-15T04:57:35.821Z,12.60
2022-09-15T05:00:06.591Z,10.90
2022-09-15T05:02:34.130Z,12.40
2022-09-15T05:05:02.198Z,12.60
2022-09-15T05:07:29.809Z,12.80
2022-09-15T05:09:57.379Z,12.60
2022-09-15T05:12:24.881Z,12.60
2022-09-15T05:14:52.439Z,13.00
2022-09-15T05:17:21.475Z,12.80
2022-09-15T05:19:51.670Z,12.60
2022-09-15T05:22:19.195Z,12.70
2022-09-15T05:24:47.311Z,12.70
2022-09-15T05:27:14.929Z,12.70
2022-09-15T05:29:43.106Z,12.80
2022-09-15T05:32:13.798Z,11.90
2022-09-15T05:34:41.412Z,11.00
2022-09-15T05:37:10.351Z,11.30
2022-09-15T05:39:41.080Z,12.70
2022-09-15T05:42:09.027Z,12.70
2022-09-15T05:44:36.584Z,12.70
2022-09-15T05:47:04.550Z,12.70
2022-09-15T05:49:32.927Z,12.80
2022-09-15T05:52:00.599Z,12.70
2022-09-15T05:54:28.237Z,12.90
2022-09-15T05:56:58.859Z,13.00
2022-09-15T05:59:26.472Z,12.90
2022-09-15T06:01:54.185Z,12.90
2022-09-15T06:04:21.896Z,13.00
2022-09-15T06:06:49.453Z,13.10
2022-09-15T06:09:17.060Z,13.00
2022-09-15T06:11:45.353Z,13.00
2022-09-15T06:14:13.557Z,13.00
2022-09-15T06:16:41.851Z,13.30
2022-09-15T06:19:09.428Z,13.10
2022-09-15T06:21:37.037Z,13.10
2022-09-15T06:24:07.080Z,13.10
2022-09-15T06:26:35.029Z,13.30
2022-09-15T06:29:05.198Z,13.20
2022-09-15T06:31:34.171Z,13.30
2022-09-15T06:34:03.787Z,13.30
2022-09-15T06:36:31.688Z,13.30
2022-09-15T06:38:59.791Z,12.70
2022-09-15T06:42:01.358Z,13.30
2022-09-15T06:44:29.931Z,13.50
2022-09-15T06:46:58.391Z,13.80
2022-09-15T06:49:31.267Z,13.60
2022-09-15T06:52:01.900Z,13.60
2022-09-15T06:54:29.538Z,13.60
2022-09-15T06:56:57.077Z,13.80
2022-09-15T06:59:24.659Z,13.80
2022-09-15T07:01:54.712Z,14.10
2022-09-15T07:04:23.552Z,13.90
2022-09-15T07:07:19.430Z,13.90
2022-09-15T07:13:23.604Z,14.20
2022-09-15T07:16:01.114Z,14.10
2022-09-15T07:18:38.579Z,14.10
2022-09-15T07:21:18.346Z,14.40
2022-09-15T07:23:50.639Z,14.60
2022-09-15T07:26:27.632Z,14.30
2022-09-15T07:28:58.197Z,14.40
2022-09-15T07:31:29.427Z,14.50
2022-09-15T07:33:59.094Z,14.50
2022-09-15T07:36:26.674Z,14.50
2022-09-15T07:39:03.720Z,14.50
2022-09-15T07:41:42.104Z,14.50
2022-09-15T07:44:47.018Z,14.00
2022-09-15T07:47:23.567Z,14.80
2022-09-15T07:50:18.265Z,14.90
2022-09-15T07:57:09.327Z,15.10
2022-09-15T08:00:52.818Z,15.40
2022-09-15T08:04:35.011Z,15.50
2022-09-15T08:10:41.178Z,16.60
2022-09-15T08:13:54.916Z,15.60
2022-09-15T08:16:25.209Z,15.80
2022-09-15T08:19:07.923Z,15.80
2022-09-15T08:21:38.875Z,16.60
2022-09-15T08:24:09.469Z,15.80
2022-09-15T08:26:38.463Z,15.90
2022-09-15T08:29:09.202Z,14.40
2022-09-15T08:31:52.422Z,15.90
2022-09-15T08:34:44.408Z,15.80
2022-09-15T08:37:31.809Z,15.90
2022-09-15T08:40:32.636Z,16.00
2022-09-15T08:43:14.297Z,16.00
2022-09-15T08:45:53.393Z,15.80
2022-09-15T08:48:27.643Z,16.20
2022-09-15T08:51:02.729Z,16.30
2022-09-15T08:53:48.128Z,16.30
2022-09-15T08:56:20.751Z,16.40
2022-09-15T08:58:48.668Z,16.40
2022-09-15T09:01:29.907Z,16.60
2022-09-15T09:04:17.530Z,15.60
2022-09-15T09:07:03.374Z,16.70
2022-09-15T09:09:57.618Z,15.10
2022-09-15T09:12:47.092Z,17.10
2022-09-15T09:15:34.162Z,17.20
2022-09-15T09:18:33.887Z,16.00
2022-09-15T09:21:26.601Z,17.10
2022-09-15T09:24:17.550Z,17.30
2022-09-15T09:26:55.411Z,15.70
2022-09-15T09:29:58.831Z,17.40
2022-09-15T09:33:13.288Z,17.50
2022-09-15T09:35:56.875Z,17.60
2022-09-15T09:38:35.786Z,17.70
2022-09-15T09:41:26.060Z,16.90
2022-09-15T09:43:58.156Z,18.00
2022-09-15T09:46:31.670Z,18.00
2022-09-15T09:49:30.274Z,17.90
2022-09-15T09:52:03.565Z,17.80
2022-09-15T09:54:42.246Z,18.00
2022-09-15T09:57:31.945Z,18.00
2022-09-15T09:59:59.923Z,17.90
2022-09-15T10:02:28.855Z,18.10
2022-09-15T10:05:18.421Z,18.20
2022-09-15T10:07:47.644Z,18.50
2022-09-15T10:10:29.871Z,16.60
2022-09-15T10:13:03.710Z,18.30
2022-09-15T10:15:40.527Z,18.30
2022-09-15T10:18:37.534Z,18.30
2022-09-15T10:21:08.112Z,18.30
2022-09-15T10:23:36.287Z,18.40
2022-09-15T10:26:16.210Z,18.60
2022-09-15T10:28:45.490Z,18.70
2022-09-15T10:31:27.525Z,20.10
2022-09-15T10:33:55.339Z,18.80
2022-09-15T10:36:33.071Z,18.70
2022-09-15T10:39:38.932Z,18.80
2022-09-15T10:42:28.154Z,18.80
2022-09-15T10:45:47.404Z,18.90
2022-09-15T10:48:30.270Z,19.00
2022-09-15T10:51:22.841Z,19.40
2022-09-15T10:54:19.692Z,19.40
2022-09-15T10:56:52.249Z,19.30
2022-09-15T10:59:36.876Z,19.20
2022-09-15T11:02:30.382Z,19.30
2022-09-15T11:05:22.623Z,19.30
2022-09-15T11:08:26.687Z,19.30
2022-09-15T11:11:40.536Z,19.50
2022-09-15T11:14:57.930Z,19.50
2022-09-15T11:17:43.552Z,19.70
2022-09-15T11:20:24.484Z,19.40
2022-09-15T11:23:05.749Z,19.50
2022-09-15T11:25:43.787Z,19.50
2022-09-15T11:28:35.586Z,19.50
2022-09-15T11:31:18.448Z,19.60
2022-09-15T11:34:03.012Z,19.60
2022-09-15T11:36:40.601Z,19.70
2022-09-15T11:39:36.685Z,19.90
2022-09-15T11:42:18.344Z,20.20
2022-09-15T11:44:51.698Z,20.20
2022-09-15T11:47:40.734Z,20.20
2022-09-15T11:50:23.131Z,20.40
2022-09-15T11:53:10.390Z,20.30
2022-09-15T11:56:08.263Z,20.00
2022-09-15T11:59:17.272Z,20.30
2022-09-15T12:01:55.259Z,19.30
2022-09-15T12:04:37.782Z,20.20
2022-09-15T12:07:29.750Z,20.20
2022-09-15T12:10:30.297Z,20.20
2022-09-15T12:13:10.734Z,19.80
2022-09-15T12:15:40.688Z,19.60
2022-09-15T12:18:40.812Z,18.80
2022-09-15T12:21:42.340Z,19.20
2022-09-15T12:24:49.712Z,19.30
2022-09-15T12:27:22.371Z,17.60
2022-09-15T12:30:03.698Z,19.70
2022-09-15T12:32:34.888Z,18.00
2022-09-15T12:35:30.201Z,20.20
2022-09-15T12:38:01.242Z,20.10
2022-09-15T12:40:35.965Z,20.30
2022-09-15T12:43:20.967Z,20.20
2022-09-15T12:46:19.501Z,20.50
2022-09-15T12:48:47.894Z,20.40
2022-09-15T12:51:29.301Z,20.40
2022-09-15T12:54:25.712Z,20.70
2022-09-15T12:57:13.311Z,20.60
2022-09-15T13:00:19.689Z,20.60
2022-09-15T13:02:58.297Z,20.70
2022-09-15T13:05:46.210Z,20.60
2022-09-15T13:08:36.955Z,20.50
2022-09-15T13:11:11.508Z,20.60
2022-09-15T13:14:14.608Z,20.50
2022-09-15T13:17:16.687Z,20.70
2022-09-15T13:20:15.443Z,20.40
2022-09-15T13:22:58.898Z,20.20
2022-09-15T13:25:43.079Z,20.00
2022-09-15T13:28:18.252Z,19.80
2022-09-15T13:31:20.849Z,19.80
2022-09-15T13:38:07.812Z,19.50
2022-09-15T13:41:22.327Z,19.60
2022-09-15T13:44:02.404Z,19.70
2022-09-15T13:46:59.596Z,20.00
2022-09-15T13:49:40.954Z,20.00
2022-09-15T13:55:37.254Z,20.00
2022-09-15T14:01:15.570Z,20.00
2022-09-15T14:03:53.888Z,19.80
2022-09-15T14:06:46.988Z,19.70
2022-09-15T14:09:28.724Z,19.60
2022-09-15T14:12:08.078Z,19.60
2022-09-15T14:15:20.015Z,19.60
2022-09-15T14:17:48.904Z,19.80
2022-09-15T14:23:28.428Z,21.00
2022-09-15T14:26:19.909Z,21.60
2022-09-15T14:29:04.249Z,22.20
2022-09-15T14:31:41.061Z,22.80
2022-09-15T14:34:31.241Z,23.10
2022-09-15T14:37:32.133Z,23.50
2022-09-15T14:40:06.030Z,23.50
2022-09-15T14:42:41.059Z,23.20
2022-09-15T14:48:11.149Z,22.00
2022-09-15T14:50:41.845Z,22.20
2022-09-15T14:53:19.367Z,21.80
2022-09-15T14:56:07.724Z,21.60
2022-09-15T14:58:49.330Z,21.30
2022-09-15T15:01:36.754Z,21.20
2022-09-15T15:04:10.439Z,21.10
2022-09-15T15:07:05.313Z,21.10
2022-09-15T15:09:40.437Z,20.90
2022-09-15T15:12:18.604Z,20.90
2022-09-15T15:14:56.274Z,20.70
2022-09-15T15:17:39.405Z,20.70
2022-09-15T15:20:20.863Z,20.50
2022-09-15T15:23:16.779Z,20.30
2022-09-15T15:25:45.804Z,19.60
2022-09-15T15:28:33.598Z,19.80
2022-09-15T15:31:20.420Z,19.70
2022-09-15T15:33:59.569Z,19.60
2022-09-15T15:36:50.452Z,19.40
2022-09-15T15:39:32.839Z,19.30
2022-09-15T15:42:11.085Z,19.10
2022-09-15T15:44:41.480Z,19.10
2022-09-15T15:47:12.189Z,19.10
2022-09-15T15:50:02.205Z,18.80
2022-09-15T15:52:27.616Z,18.80
2022-09-15T15:54:55.273Z,18.80
2022-09-15T15:57:30.255Z,19.00
2022-09-15T16:00:00.447Z,18.80
2022-09-15T16:02:31.064Z,18.80
2022-09-15T16:04:58.625Z,18.70
2022-09-15T16:07:28.874Z,18.70
2022-09-15T16:10:01.024Z,17.60
2022-09-15T16:12:30.817Z,18.60
2022-09-15T16:15:00.848Z,18.50
2022-09-15T16:17:28.463Z,18.60
2022-09-15T16:19:56.155Z,18.50
2022-09-15T16:22:23.913Z,18.50
2022-09-15T16:24:51.589Z,18.50
2022-09-15T16:27:19.241Z,18.50
2022-09-15T16:29:49.149Z,18.50
2022-09-15T16:32:22.304Z,18.40
2022-09-15T16:34:54.329Z,18.30
2022-09-15T16:37:22.050Z,18.40
2022-09-15T16:39:52.118Z,18.20
2022-09-15T16:42:22.250Z,18.20
2022-09-15T16:44:49.758Z,18.10
2022-09-15T16:47:17.235Z,18.00
2022-09-15T16:49:44.783Z,18.10
2022-09-15T16:52:13.510Z,18.00
2022-09-15T16:54:40.942Z,18.00
2022-09-15T16:57:08.444Z,17.90
2022-09-15T16:59:36.139Z,17.80
2022-09-15T17:02:05.594Z,17.80
2022-09-15T17:04:33.018Z,17.80
2022-09-15T17:07:00.595Z,17.70
2022-09-15T17:09:28.010Z,17.70
2022-09-15T17:12:03.978Z,17.60
2022-09-15T17:14:31.476Z,17.60
2022-09-15T17:16:58.926Z,17.50
2022-09-15T17:19:26.384Z,17.40
2022-09-15T17:21:53.980Z,17.30
2022-09-15T17:24:21.459Z,17.30
2022-09-15T17:26:49.117Z,17.20
2022-09-15T17:29:16.663Z,17.20
2022-09-15T17:31:44.419Z,17.10
2022-09-15T17:34:14.497Z,17.10
2022-09-15T17:36:42.230Z,17.00
2022-09-15T17:39:09.720Z,17.00
2022-09-15T17:41:38.628Z,17.00
2022-09-15T17:44:12.143Z,16.90
2022-09-15T17:46:40.007Z,16.90
2022-09-15T17:49:07.513Z,16.90
2022-09-15T17:51:35.151Z,16.80
2022-09-15T17:54:02.873Z,16.80
2022-09-15T17:56:31.009Z,16.70
2022-09-15T17:59:01.569Z,16.60
2022-09-15T18:01:31.604Z,16.60
2022-09-15T18:04:03.760Z,16.60
2022-09-15T18:06:31.284Z,16.50
2022-09-15T18:09:02.183Z,16.50
2022-09-15T18:11:29.645Z,16.40
2022-09-15T18:13:59.428Z,16.40
2022-09-15T18:16:26.894Z,16.30
2022-09-15T18:18:54.355Z,16.20
2022-09-15T18:21:28.620Z,16.10
2022-09-15T18:23:59.005Z,15.90
2022-09-15T18:26:26.973Z,15.90
2022-09-15T18:28:54.812Z,15.80
2022-09-15T18:31:22.678Z,15.70
2022-09-15T18:33:52.345Z,15.60
2022-09-15T18:36:21.871Z,15.60
2022-09-15T18:38:49.446Z,15.50
2022-09-15T18:41:16.986Z,15.40
2022-09-15T18:43:48.799Z,15.40
2022-09-15T18:46:17.489Z,15.40
2022-09-15T18:48:45.108Z,15.40
2022-09-15T18:51:19.724Z,15.30
2022-09-15T18:53:54.227Z,15.30
2022-09-15T18:56:22.132Z,15.10
2022-09-15T18:58:53.712Z,15.20
2022-09-15T19:01:24.276Z,15.10
2022-09-15T19:03:51.880Z,15.10
2022-09-15T19:06:19.347Z,15.00
2022-09-15T19:08:46.900Z,15.00
2022-09-15T19:11:14.608Z,15.00
2022-09-15T19:13:42.156Z,14.90
2022-09-15T19:16:09.966Z,15.00
2022-09-15T19:18:37.584Z,14.90
2022-09-15T19:21:06.809Z,14.90
2022-09-15T19:23:35.939Z,14.90
2022-09-15T19:26:05.346Z,14.90
2022-09-15T19:28:33.443Z,15.00
2022-09-15T19:31:01.085Z,14.80
2022-09-15T19:33:28.800Z,15.00
2022-09-15T19:36:17.090Z,15.00
2022-09-15T19:38:51.535Z,15.00
2022-09-15T19:41:19.007Z,15.10
2022-09-15T19:43:46.773Z,15.10
2022-09-15T19:46:24.069Z,15.20
2022-09-15T19:48:53.406Z,15.20
2022-09-15T19:51:22.093Z,15.20
2022-09-15T19:53:53.093Z,15.30
2022-09-15T19:56:22.814Z,15.30
2022-09-15T19:58:50.399Z,15.30
2022-09-15T20:01:18.198Z,15.30
2022-09-15T20:03:45.729Z,15.30
2022-09-15T20:06:13.233Z,15.30
2022-09-15T20:08:43.069Z,15.30
2022-09-15T20:11:10.633Z,15.30
2022-09-15T20:13:41.439Z,15.30
2022-09-15T20:16:14.275Z,15.30
2022-09-15T20:18:42.956Z,15.20
2022-09-15T20:21:48.618Z,15.20
2022-09-15T20:24:15.913Z,15.20
2022-09-15T20:26:43.464Z,15.20
2022-09-15T20:29:16.095Z,16.60
2022-09-15T20:31:43.809Z,15.10
2022-09-15T20:34:11.300Z,15.10
2022-09-15T20:36:39.463Z,15.10
2022-09-15T20:39:09.255Z,15.10
2022-09-15T20:41:37.069Z,15.00
2022-09-15T20:44:06.066Z,15.00
2022-09-15T20:46:33.642Z,15.00
2022-09-15T20:49:04.903Z,15.00
2022-09-15T20:51:33.757Z,14.90
2022-09-15T20:54:03.479Z,14.80
2022-09-15T20:56:34.778Z,14.80
2022-09-15T20:59:03.463Z,14.70
2022-09-15T21:01:36.709Z,14.70
2022-09-15T21:04:08.799Z,14.70
2022-09-15T21:06:37.221Z,14.70
2022-09-15T21:09:05.887Z,14.70
2022-09-15T21:11:33.434Z,14.60
2022-09-15T21:14:01.451Z,14.70
2022-09-15T21:16:29.256Z,14.70
2022-09-15T21:18:59.587Z,14.70
2022-09-15T21:21:30.167Z,14.60
2022-09-15T21:24:01.824Z,14.60
2022-09-15T21:26:32.619Z,14.60
2022-09-15T21:29:00.404Z,14.60
2022-09-15T21:31:31.134Z,14.60
2022-09-15T21:33:59.443Z,14.50
2022-09-15T21:36:29.585Z,14.50
2022-09-15T21:38:59.269Z,14.50
2022-09-15T21:41:29.913Z,14.40
2022-09-15T21:43:59.054Z,14.50
2022-09-15T21:46:31.906Z,14.40
2022-09-15T21:49:00.258Z,12.80
2022-09-15T21:51:29.387Z,14.40
2022-09-15T21:53:58.668Z,14.40
2022-09-15T21:56:27.421Z,14.30
2022-09-15T21:58:55.267Z,14.30
2022-09-15T22:01:29.271Z,14.10
2022-09-15T22:03:59.139Z,14.00
2022-09-15T22:06:32.377Z,13.90
2022-09-15T22:09:01.563Z,13.80
2022-09-15T22:11:29.369Z,13.70
2022-09-15T22:13:57.630Z,13.60
2022-09-15T22:16:26.186Z,13.60
2022-09-15T22:18:54.269Z,13.50
2022-09-15T22:21:25.085Z,13.40
2022-09-15T22:23:55.395Z,13.30
2022-09-15T22:26:26.224Z,13.30
2022-09-15T22:28:54.364Z,13.30
2022-09-15T22:31:24.497Z,13.20
2022-09-15T22:33:52.587Z,13.60
2022-09-15T22:36:28.580Z,13.20
2022-09-15T22:39:04.601Z,13.20
2022-09-15T22:41:37.713Z,13.20
2022-09-15T22:44:06.447Z,13.20
2022-09-15T22:46:34.202Z,13.20
2022-09-15T22:49:02.076Z,13.30
2022-09-15T22:51:29.593Z,13.20
2022-09-15T22:53:57.742Z,13.20
2022-09-15T22:56:26.225Z,13.20
2022-09-15T22:58:55.306Z,13.20
2022-09-15T23:01:25.050Z,13.10
2022-09-15T23:03:55.694Z,13.10
2022-09-15T23:06:24.100Z,13.10
2022-09-15T23:08:57.060Z,13.10
2022-09-15T23:11:26.755Z,13.00
2022-09-15T23:13:55.346Z,13.00
2022-09-15T23:16:24.279Z,12.90
2022-09-15T23:18:52.891Z,12.90
2022-09-15T23:21:20.762Z,12.90
2022-09-15T23:23:49.232Z,12.90
2022-09-15T23:26:18.885Z,12.80
2022-09-15T23:28:46.656Z,12.80
2022-09-15T23:31:14.408Z,12.70
2022-09-15T23:33:42.693Z,12.80
2022-09-15T23:36:11.665Z,12.80
2022-09-15T23:38:40.791Z,12.80
2022-09-15T23:41:09.059Z,12.80
2022-09-15T23:43:36.615Z,12.90
2022-09-15T23:46:04.822Z,12.90
2022-09-15T23:48:32.598Z,12.90
2022-09-15T23:51:00.695Z,13.00
2022-09-15T23:53:28.425Z,13.00
2022-09-15T23:55:56.150Z,13.10
2022-09-15T23:58:23.803Z,13.10
